createdAt,value
2019-05-18T00:00:45.655Z,58.50
2019-05-18T00:03:13.442Z,58.50
2019-05-18T00:05:40.126Z,58.50
2019-05-18T00:08:06.525Z,58.50
2019-05-18T00:10:33.077Z,58.40
2019-05-18T00:12:59.662Z,58.60
2019-05-18T00:15:46.093Z,59.10
2019-05-18T00:18:12.479Z,60.40
2019-05-18T00:20:38.888Z,62.40
2019-05-18T00:23:05.422Z,63.60
2019-05-18T00:25:32.428Z,63.50
2019-05-18T00:27:59.004Z,64.50
2019-05-18T00:30:25.711Z,65.00
2019-05-18T00:32:52.299Z,65.80
2019-05-18T00:35:18.881Z,65.90
2019-05-18T00:37:45.521Z,64.90
2019-05-18T00:40:12.621Z,66.00
2019-05-18T00:42:39.225Z,66.30
2019-05-18T00:45:26.825Z,66.80
2019-05-18T00:47:53.277Z,67.90
2019-05-18T00:50:19.856Z,65.40
2019-05-18T00:52:46.524Z,66.10
2019-05-18T00:55:13.125Z,66.70
2019-05-18T00:57:53.344Z,67.50
2019-05-18T01:00:20.046Z,68.40
2019-05-18T01:02:46.729Z,67.30
2019-05-18T01:05:13.381Z,67.80
2019-05-18T01:07:39.959Z,68.00
2019-05-18T01:10:07.821Z,68.00
2019-05-18T01:12:34.487Z,68.20
2019-05-18T01:15:01.230Z,69.00
2019-05-18T01:17:27.917Z,68.90
2019-05-18T01:19:54.438Z,68.90
2019-05-18T01:22:20.912Z,69.50
2019-05-18T01:24:47.597Z,67.90
2019-05-18T01:27:34.013Z,68.50
2019-05-18T01:30:00.579Z,68.00
2019-05-18T01:32:27.429Z,68.50
2019-05-18T01:34:54.025Z,69.70
2019-05-18T01:37:20.591Z,69.50
2019-05-18T01:39:47.098Z,70.20
2019-05-18T01:42:14.863Z,69.30
2019-05-18T01:44:41.329Z,70.30
2019-05-18T01:47:20.995Z,69.60
2019-05-18T01:49:47.678Z,69.30
2019-05-18T01:52:14.303Z,69.10
2019-05-18T01:54:40.856Z,68.80
2019-05-18T01:57:07.411Z,68.80
2019-05-18T01:59:33.930Z,69.80
2019-05-18T02:02:00.587Z,69.60
2019-05-18T02:04:27.135Z,68.80
2019-05-18T02:07:13.392Z,69.30
2019-05-18T02:09:40.292Z,69.00
2019-05-18T02:12:06.932Z,69.80
2019-05-18T02:14:33.527Z,70.10
2019-05-18T02:16:59.999Z,70.50
2019-05-18T02:19:26.451Z,71.60
2019-05-18T02:21:53.150Z,72.40
2019-05-18T02:24:19.770Z,73.00
2019-05-18T02:26:46.435Z,73.90
2019-05-18T02:29:13.089Z,74.50
2019-05-18T02:31:40.402Z,75.60
2019-05-18T02:34:07.047Z,75.10
2019-05-18T02:36:33.490Z,74.60
2019-05-18T02:39:00.106Z,75.00
2019-05-18T02:41:40.268Z,75.50
2019-05-18T02:44:06.900Z,74.90
2019-05-18T02:46:33.500Z,74.20
2019-05-18T02:49:00.142Z,74.70
2019-05-18T02:51:26.647Z,74.10
2019-05-18T02:53:53.378Z,73.70
2019-05-18T02:56:19.852Z,74.00
2019-05-18T02:58:46.203Z,72.30
2019-05-18T03:01:12.701Z,73.60
2019-05-18T03:03:39.276Z,73.40
2019-05-18T03:06:05.849Z,73.70
2019-05-18T03:08:32.521Z,72.60
2019-05-18T03:10:59.864Z,72.60
2019-05-18T03:13:26.294Z,72.70
2019-05-18T03:15:53.007Z,71.90
2019-05-18T03:18:19.590Z,72.60
2019-05-18T03:20:46.070Z,72.40
2019-05-18T03:23:12.614Z,72.40
2019-05-18T03:25:39.665Z,72.80
2019-05-18T03:28:06.034Z,72.90
2019-05-18T03:30:32.549Z,72.10
2019-05-18T03:32:59.197Z,71.80
2019-05-18T03:35:25.890Z,71.50
2019-05-18T03:37:52.981Z,71.50
2019-05-18T03:40:19.382Z,71.20
2019-05-18T03:42:46.008Z,71.50
2019-05-18T03:45:25.935Z,71.60
2019-05-18T03:47:52.577Z,70.50
2019-05-18T03:50:19.080Z,71.00
2019-05-18T03:52:45.661Z,71.20
2019-05-18T03:55:12.930Z,71.70
2019-05-18T03:57:39.585Z,71.60
2019-05-18T04:00:08.172Z,71.60
2019-05-18T04:02:34.930Z,72.10
2019-05-18T04:05:01.690Z,72.20
2019-05-18T04:07:28.247Z,71.60
2019-05-18T04:09:54.708Z,71.50
2019-05-18T04:12:21.190Z,71.50
2019-05-18T04:14:47.724Z,71.80
2019-05-18T04:17:14.127Z,71.80
2019-05-18T04:19:46.547Z,71.50
2019-05-18T04:22:08.930Z,71.80
2019-05-18T04:24:35.391Z,72.00
2019-05-18T04:27:01.964Z,72.00
2019-05-18T04:29:28.560Z,72.10
2019-05-18T04:31:55.084Z,71.80
2019-05-18T04:34:21.727Z,72.20
2019-05-18T04:36:48.329Z,71.60
2019-05-18T04:39:15.046Z,71.00
2019-05-18T04:41:41.489Z,70.70
2019-05-18T04:44:08.073Z,70.40
2019-05-18T04:46:34.652Z,70.60
2019-05-18T04:49:01.091Z,70.40
2019-05-18T04:51:27.667Z,71.00
2019-05-18T04:53:54.216Z,71.50
2019-05-18T04:56:20.829Z,70.20
2019-05-18T04:58:47.439Z,69.90
2019-05-18T05:01:13.951Z,70.50
2019-05-18T05:03:40.626Z,70.90
2019-05-18T05:06:07.212Z,70.60
2019-05-18T05:08:33.744Z,71.40
2019-05-18T05:11:00.550Z,71.80
2019-05-18T05:13:26.985Z,72.40
2019-05-18T05:15:53.659Z,73.30
2019-05-18T05:18:20.085Z,72.80
2019-05-18T05:20:46.534Z,72.50
2019-05-18T05:23:13.196Z,73.50
2019-05-18T05:25:39.808Z,74.10
2019-05-18T05:28:06.211Z,73.60
2019-05-18T05:30:32.905Z,73.80
2019-05-18T05:32:59.450Z,74.20
2019-05-18T05:35:26.459Z,74.80
2019-05-18T05:37:55.166Z,74.80
2019-05-18T05:40:21.994Z,73.80
2019-05-18T05:42:48.559Z,74.40
2019-05-18T05:45:28.580Z,74.50
2019-05-18T05:47:55.967Z,74.80
2019-05-18T05:50:34.795Z,74.90
2019-05-18T05:52:51.115Z,75.10
2019-05-18T05:55:17.907Z,74.50
2019-05-18T05:57:44.610Z,74.80
2019-05-18T06:00:11.656Z,75.50
2019-05-18T06:02:38.097Z,76.80
2019-05-18T06:05:05.860Z,75.80
2019-05-18T06:07:33.070Z,75.50
2019-05-18T06:09:59.583Z,75.60
2019-05-18T06:12:26.161Z,76.70
2019-05-18T06:14:53.016Z,77.00
2019-05-18T06:17:19.475Z,76.50
2019-05-18T06:19:48.871Z,76.70
2019-05-18T06:22:15.447Z,77.00
2019-05-18T06:24:41.856Z,77.10
2019-05-18T06:27:08.462Z,76.80
2019-05-18T06:29:35.091Z,75.80
2019-05-18T06:32:01.635Z,75.20
2019-05-18T06:34:28.190Z,74.80
2019-05-18T06:36:56.063Z,75.10
2019-05-18T06:39:22.971Z,74.10
2019-05-18T06:41:49.447Z,73.60
2019-05-18T06:44:16.272Z,73.80
2019-05-18T06:46:42.891Z,73.20
2019-05-18T06:49:29.255Z,73.10
2019-05-18T06:51:55.727Z,73.30
2019-05-18T06:54:22.214Z,73.80
2019-05-18T06:56:50.256Z,73.50
2019-05-18T06:59:16.994Z,73.80
2019-05-18T07:01:43.603Z,74.10
2019-05-18T07:04:10.067Z,73.90
2019-05-18T07:06:50.112Z,74.60
2019-05-18T07:09:16.772Z,75.00
2019-05-18T07:11:43.249Z,75.00
2019-05-18T07:14:09.794Z,75.00
2019-05-18T07:16:36.571Z,75.20
2019-05-18T07:19:03.074Z,76.00
2019-05-18T07:21:29.603Z,75.00
2019-05-18T07:23:56.152Z,74.80
2019-05-18T07:26:22.793Z,75.10
2019-05-18T07:28:49.259Z,75.00
2019-05-18T07:31:15.842Z,74.20
2019-05-18T07:33:42.271Z,74.40
2019-05-18T07:36:09.338Z,74.10
2019-05-18T07:38:38.164Z,71.90
2019-05-18T07:41:06.013Z,72.30
2019-05-18T07:43:32.737Z,72.20
2019-05-18T07:45:59.391Z,71.00
2019-05-18T07:48:26.033Z,71.40
2019-05-18T07:50:52.619Z,71.00
2019-05-18T07:53:19.331Z,70.70
2019-05-18T07:55:45.810Z,71.10
2019-05-18T07:58:12.518Z,71.00
2019-05-18T08:00:38.990Z,70.70
2019-05-18T08:03:05.521Z,71.00
2019-05-18T08:05:32.248Z,71.10
2019-05-18T08:07:58.851Z,71.20
2019-05-18T08:10:36.379Z,70.80
2019-05-18T08:13:03.906Z,70.90
2019-05-18T08:15:30.740Z,70.10
2019-05-18T08:17:57.390Z,69.80
2019-05-18T08:20:24.043Z,67.70
2019-05-18T08:22:55.580Z,68.80
2019-05-18T08:25:22.934Z,69.50
2019-05-18T08:27:49.625Z,68.50
2019-05-18T08:30:16.479Z,67.30
2019-05-18T08:32:43.089Z,67.20
2019-05-18T08:35:09.784Z,66.90
2019-05-18T08:37:36.567Z,65.70
2019-05-18T08:40:06.872Z,64.60
2019-05-18T08:42:34.241Z,66.40
2019-05-18T08:45:04.489Z,66.60
2019-05-18T08:47:31.048Z,64.80
2019-05-18T08:49:57.490Z,66.10
2019-05-18T08:52:24.158Z,65.30
2019-05-18T08:54:50.789Z,65.70
2019-05-18T08:57:19.881Z,65.20
2019-05-18T08:59:46.339Z,65.10
2019-05-18T09:02:13.212Z,64.00
2019-05-18T09:04:39.869Z,64.20
2019-05-18T09:07:09.493Z,65.60
2019-05-18T09:09:37.241Z,62.90
2019-05-18T09:12:04.537Z,61.90
2019-05-18T09:14:32.206Z,60.90
2019-05-18T09:16:58.717Z,62.00
2019-05-18T09:19:28.084Z,62.00
2019-05-18T09:21:54.674Z,62.10
2019-05-18T09:24:21.190Z,60.90
2019-05-18T09:26:47.744Z,61.10
2019-05-18T09:29:14.287Z,60.50
2019-05-18T09:31:40.798Z,60.70
2019-05-18T09:34:07.443Z,62.80
2019-05-18T09:36:33.939Z,61.00
2019-05-18T09:39:00.375Z,61.20
2019-05-18T09:41:27.380Z,60.80
2019-05-18T09:43:53.916Z,60.60
2019-05-18T09:46:33.062Z,59.90
2019-05-18T09:48:59.696Z,59.90
2019-05-18T09:51:26.225Z,61.00
2019-05-18T09:53:52.776Z,59.70
2019-05-18T09:56:19.196Z,60.10
2019-05-18T09:58:59.260Z,60.80
2019-05-18T10:01:25.748Z,59.50
2019-05-18T10:03:52.369Z,59.90
2019-05-18T10:06:18.897Z,59.90
2019-05-18T10:08:45.298Z,60.00
2019-05-18T10:11:11.741Z,59.40
2019-05-18T10:13:38.233Z,59.50
2019-05-18T10:16:04.914Z,59.40
2019-05-18T10:18:31.662Z,59.20
2019-05-18T10:20:58.336Z,59.60
2019-05-18T10:23:24.801Z,58.70
2019-05-18T10:25:51.186Z,59.00
2019-05-18T10:28:17.612Z,58.80
2019-05-18T10:31:03.816Z,57.60
2019-05-18T10:33:31.558Z,58.60
2019-05-18T10:35:58.149Z,58.50
2019-05-18T10:38:24.689Z,58.30
2019-05-18T10:40:51.178Z,58.30
2019-05-18T10:43:17.639Z,58.30
2019-05-18T10:45:57.349Z,57.90
2019-05-18T10:48:23.921Z,58.10
2019-05-18T10:50:50.425Z,58.50
2019-05-18T10:53:28.392Z,59.90
2019-05-18T10:55:45.259Z,59.50
2019-05-18T10:58:11.849Z,59.40
2019-05-18T11:00:38.477Z,59.20
2019-05-18T11:03:05.096Z,59.70
2019-05-18T11:05:31.727Z,58.90
2019-05-18T11:07:58.120Z,59.30
2019-05-18T11:10:24.710Z,59.30
2019-05-18T11:12:51.116Z,60.10
2019-05-18T11:15:19.944Z,59.70
2019-05-18T11:17:46.432Z,61.00
2019-05-18T11:20:13.894Z,61.50
2019-05-18T11:22:42.314Z,61.00
2019-05-18T11:25:09.457Z,59.60
2019-05-18T11:27:36.127Z,59.10
2019-05-18T11:30:05.859Z,59.70
2019-05-18T11:32:33.632Z,59.60
2019-05-18T11:35:00.316Z,60.40
2019-05-18T11:37:26.866Z,60.90
2019-05-18T11:40:13.458Z,59.60
2019-05-18T11:42:40.370Z,60.00
2019-05-18T11:45:10.268Z,61.10
2019-05-18T11:47:37.947Z,61.30
2019-05-18T11:50:07.511Z,60.80
2019-05-18T11:52:53.757Z,60.50
2019-05-18T11:55:20.506Z,60.20
2019-05-18T11:57:47.211Z,60.90
2019-05-18T12:00:26.747Z,61.60
2019-05-18T12:02:53.366Z,61.10
2019-05-18T12:05:19.995Z,61.90
2019-05-18T12:07:46.657Z,62.40
2019-05-18T12:10:14.233Z,62.80
2019-05-18T12:12:41.158Z,62.20
2019-05-18T12:15:09.419Z,62.80
2019-05-18T12:17:36.019Z,61.70
2019-05-18T12:20:05.527Z,61.30
2019-05-18T12:22:32.017Z,61.20
2019-05-18T12:24:58.569Z,62.00
2019-05-18T12:27:25.205Z,62.00
2019-05-18T12:29:51.614Z,63.30
2019-05-18T12:32:17.999Z,63.10
2019-05-18T12:34:45.326Z,64.00
2019-05-18T12:37:14.044Z,65.30
2019-05-18T12:39:40.634Z,66.10
2019-05-18T12:42:07.654Z,66.40
2019-05-18T12:44:35.584Z,67.60
2019-05-18T12:47:02.163Z,68.80
2019-05-18T12:49:28.684Z,68.70
2019-05-18T12:51:55.367Z,69.00
2019-05-18T12:54:30.945Z,69.70
2019-05-18T12:56:50.273Z,68.20
2019-05-18T12:59:16.937Z,69.30
2019-05-18T13:01:43.380Z,68.80
2019-05-18T13:04:10.006Z,69.50
2019-05-18T13:06:36.541Z,71.00
2019-05-18T13:09:05.370Z,71.00
2019-05-18T13:11:31.879Z,70.40
2019-05-18T13:13:59.477Z,71.10
2019-05-18T13:16:25.889Z,72.10
2019-05-18T13:18:52.497Z,71.80
2019-05-18T13:21:19.064Z,71.90
2019-05-18T13:23:45.455Z,72.60
2019-05-18T13:26:11.989Z,72.90
2019-05-18T13:28:38.457Z,72.90
2019-05-18T13:31:04.907Z,72.50
2019-05-18T13:33:45.169Z,71.90
2019-05-18T13:36:11.604Z,72.80
2019-05-18T13:38:38.118Z,72.10
2019-05-18T13:41:04.533Z,72.70
2019-05-18T13:43:31.076Z,71.90
2019-05-18T13:45:57.806Z,71.00
2019-05-18T13:48:24.290Z,71.70
2019-05-18T13:50:50.992Z,70.60
2019-05-18T13:53:17.356Z,70.00
2019-05-18T13:55:43.758Z,70.70
2019-05-18T13:58:23.460Z,71.10
2019-05-18T14:00:50.035Z,70.10
2019-05-18T14:03:16.578Z,68.90
2019-05-18T14:05:43.120Z,68.60
2019-05-18T14:08:14.487Z,68.10
2019-05-18T14:10:38.181Z,67.70
2019-05-18T14:13:04.674Z,67.50
2019-05-18T14:15:31.351Z,66.20
2019-05-18T14:17:57.876Z,66.10
2019-05-18T14:20:26.325Z,66.20
2019-05-18T14:22:52.933Z,66.40
2019-05-18T14:25:20.312Z,66.90
2019-05-18T14:27:47.352Z,65.70
2019-05-18T14:30:14.302Z,66.30
2019-05-18T14:32:41.188Z,65.70
2019-05-18T14:35:09.486Z,65.90
2019-05-18T14:37:35.961Z,66.80
2019-05-18T14:40:05.438Z,65.90
2019-05-18T14:42:31.896Z,64.60
2019-05-18T14:44:58.470Z,64.60
2019-05-18T14:47:27.424Z,64.20
2019-05-18T14:49:53.256Z,64.10
2019-05-18T14:52:19.653Z,64.40
2019-05-18T14:54:46.212Z,64.40
2019-05-18T14:57:12.842Z,64.20
2019-05-18T14:59:39.260Z,63.60
2019-05-18T15:02:05.858Z,63.70
2019-05-18T15:04:32.325Z,64.30
2019-05-18T15:06:58.771Z,63.90
2019-05-18T15:09:27.254Z,64.50
2019-05-18T15:11:53.812Z,64.10
2019-05-18T15:14:20.339Z,63.50
2019-05-18T15:16:46.933Z,64.20
2019-05-18T15:19:13.540Z,64.40
2019-05-18T15:21:40.039Z,65.30
2019-05-18T15:24:08.773Z,64.10
2019-05-18T15:26:35.261Z,64.10
2019-05-18T15:29:02.317Z,64.80
2019-05-18T15:31:28.787Z,65.20
2019-05-18T15:34:15.129Z,64.90
2019-05-18T15:36:41.863Z,65.10
2019-05-18T15:39:08.577Z,65.30
2019-05-18T15:41:35.186Z,65.50
2019-05-18T15:44:01.972Z,65.60
2019-05-18T15:46:28.593Z,66.20
2019-05-18T15:48:56.236Z,65.70
2019-05-18T15:51:23.003Z,65.30
2019-05-18T15:53:49.411Z,65.90
2019-05-18T15:56:16.022Z,65.90
2019-05-18T15:58:42.436Z,65.80
2019-05-18T16:01:21.929Z,66.50
2019-05-18T16:03:48.625Z,66.20
2019-05-18T16:06:15.401Z,66.40
2019-05-18T16:08:41.813Z,66.50
2019-05-18T16:11:08.592Z,65.80
2019-05-18T16:13:35.257Z,66.10
2019-05-18T16:16:01.941Z,66.40
2019-05-18T16:18:28.597Z,66.70
2019-05-18T16:20:55.310Z,65.80
2019-05-18T16:23:21.816Z,65.40
2019-05-18T16:25:48.329Z,65.20
2019-05-18T16:28:14.981Z,65.30
2019-05-18T16:30:41.576Z,65.20
2019-05-18T16:33:08.169Z,65.40
2019-05-18T16:35:34.773Z,65.80
2019-05-18T16:38:01.331Z,65.00
2019-05-18T16:40:27.955Z,65.60
2019-05-18T16:42:54.485Z,65.10
2019-05-18T16:45:21.988Z,65.50
2019-05-18T16:47:48.404Z,65.40
2019-05-18T16:50:15.477Z,65.10
2019-05-18T16:53:02.181Z,65.90
2019-05-18T16:55:28.878Z,66.30
2019-05-18T16:57:55.275Z,66.40
2019-05-18T17:00:21.957Z,66.30
2019-05-18T17:02:48.652Z,67.10
2019-05-18T17:05:15.386Z,67.00
2019-05-18T17:07:41.928Z,68.00
2019-05-18T17:10:09.289Z,67.20
2019-05-18T17:12:35.851Z,67.70
2019-05-18T17:15:05.322Z,67.60
2019-05-18T17:17:35.115Z,68.00
2019-05-18T17:20:00.139Z,67.80
2019-05-18T17:22:26.647Z,67.50
2019-05-18T17:24:53.342Z,67.80
2019-05-18T17:27:19.634Z,67.50
2019-05-18T17:29:46.175Z,67.90
2019-05-18T17:32:12.800Z,68.10
2019-05-18T17:34:39.260Z,68.10
2019-05-18T17:37:05.926Z,67.80
2019-05-18T17:39:33.443Z,68.30
2019-05-18T17:42:00.067Z,67.90
2019-05-18T17:44:26.535Z,67.50
2019-05-18T17:46:53.007Z,68.10
2019-05-18T17:49:26.677Z,68.40
2019-05-18T17:51:47.953Z,68.50
2019-05-18T17:54:14.383Z,68.10
2019-05-18T17:56:40.772Z,68.60
2019-05-18T17:59:08.672Z,68.70
2019-05-18T18:01:35.316Z,69.40
2019-05-18T18:04:01.989Z,69.90
2019-05-18T18:06:28.473Z,69.80
2019-05-18T18:08:55.081Z,69.90
2019-05-18T18:11:21.880Z,69.80
2019-05-18T18:13:48.761Z,70.30
2019-05-18T18:16:15.505Z,70.00
2019-05-18T18:18:42.046Z,70.20
2019-05-18T18:21:08.749Z,70.30
2019-05-18T18:23:35.364Z,70.50
2019-05-18T18:26:03.299Z,71.40
2019-05-18T18:28:29.825Z,71.30
2019-05-18T18:30:56.469Z,71.40
2019-05-18T18:33:23.073Z,71.60
2019-05-18T18:35:49.872Z,72.30
2019-05-18T18:38:16.446Z,72.10
2019-05-18T18:40:43.674Z,71.70
2019-05-18T18:43:10.205Z,71.70
2019-05-18T18:45:36.658Z,71.30
2019-05-18T18:48:03.491Z,71.10
2019-05-18T18:50:30.194Z,70.70
2019-05-18T18:52:57.797Z,70.50
2019-05-18T18:55:24.467Z,70.60
2019-05-18T18:58:04.430Z,70.60
2019-05-18T19:00:31.018Z,70.50
2019-05-18T19:02:57.597Z,70.50
2019-05-18T19:05:24.145Z,70.70
2019-05-18T19:07:50.766Z,71.10
2019-05-18T19:10:17.561Z,71.50
2019-05-18T19:12:44.119Z,72.30
2019-05-18T19:15:11.004Z,73.10
2019-05-18T19:17:37.604Z,73.60
2019-05-18T19:20:05.217Z,73.30
2019-05-18T19:22:31.849Z,74.20
2019-05-18T19:24:58.446Z,75.30
2019-05-18T19:27:24.931Z,76.10
2019-05-18T19:29:51.473Z,76.70
2019-05-18T19:32:18.018Z,77.00
2019-05-18T19:34:44.697Z,77.20
2019-05-18T19:37:11.719Z,77.60
2019-05-18T19:39:39.476Z,77.50
2019-05-18T19:42:05.922Z,77.60
2019-05-18T19:44:32.604Z,76.60
2019-05-18T19:46:59.161Z,76.10
2019-05-18T19:49:25.723Z,76.10
2019-05-18T19:51:52.693Z,75.80
2019-05-18T19:54:19.832Z,75.20
2019-05-18T19:56:46.878Z,74.50
2019-05-18T19:59:14.352Z,75.00
2019-05-18T20:01:41.174Z,74.50
2019-05-18T20:04:07.985Z,74.10
2019-05-18T20:06:34.645Z,74.80
2019-05-18T20:09:01.300Z,75.80
2019-05-18T20:11:29.792Z,75.30
2019-05-18T20:13:56.438Z,74.50
2019-05-18T20:16:23.176Z,74.50
2019-05-18T20:18:49.728Z,76.00
2019-05-18T20:21:16.364Z,77.40
2019-05-18T20:23:42.922Z,77.70
2019-05-18T20:26:09.526Z,77.90
2019-05-18T20:28:36.085Z,77.40
2019-05-18T20:31:03.278Z,77.80
2019-05-18T20:33:30.672Z,76.70
2019-05-18T20:36:16.996Z,76.00
2019-05-18T20:38:43.554Z,75.50
2019-05-18T20:41:23.779Z,75.70
2019-05-18T20:43:50.470Z,75.50
2019-05-18T20:46:16.946Z,76.50
2019-05-18T20:48:43.588Z,77.80
2019-05-18T20:51:09.873Z,78.90
2019-05-18T20:53:36.271Z,80.00
2019-05-18T20:56:03.570Z,80.80
2019-05-18T20:58:39.335Z,81.30
2019-05-18T21:00:58.583Z,82.50
2019-05-18T21:03:25.356Z,82.00
2019-05-18T21:05:52.046Z,81.90
2019-05-18T21:08:18.755Z,81.20
2019-05-18T21:10:46.387Z,81.50
2019-05-18T21:13:12.772Z,81.60
2019-05-18T21:15:39.361Z,81.30
2019-05-18T21:18:06.043Z,81.10
2019-05-18T21:20:32.534Z,81.70
2019-05-18T21:22:59.170Z,80.40
2019-05-18T21:25:25.847Z,79.00
2019-05-18T21:27:52.486Z,78.70
2019-05-18T21:30:19.071Z,78.60
2019-05-18T21:32:45.563Z,76.90
2019-05-18T21:35:12.244Z,76.20
2019-05-18T21:37:38.692Z,75.80
2019-05-18T21:40:06.760Z,75.10
2019-05-18T21:42:33.257Z,74.90
2019-05-18T21:44:59.742Z,74.70
2019-05-18T21:47:26.195Z,74.30
2019-05-18T21:49:52.661Z,74.80
2019-05-18T21:52:19.047Z,74.60
2019-05-18T21:54:45.735Z,74.60
2019-05-18T21:57:12.266Z,74.40
2019-05-18T21:59:38.670Z,74.30
2019-05-18T22:02:05.834Z,74.40
2019-05-18T22:04:32.413Z,74.30
2019-05-18T22:06:58.929Z,73.70
2019-05-18T22:09:25.933Z,74.10
2019-05-18T22:11:52.517Z,73.90
2019-05-18T22:14:19.094Z,74.60
2019-05-18T22:16:45.504Z,74.70
2019-05-18T22:19:12.087Z,74.70
2019-05-18T22:21:38.558Z,74.50
2019-05-18T22:24:05.145Z,74.70
2019-05-18T22:26:31.674Z,76.50
2019-05-18T22:28:58.287Z,75.30
2019-05-18T22:31:24.706Z,75.70
2019-05-18T22:33:51.324Z,75.60
2019-05-18T22:36:18.126Z,76.20
2019-05-18T22:38:44.667Z,77.10
2019-05-18T22:41:11.201Z,78.80
2019-05-18T22:43:37.618Z,79.30
2019-05-18T22:46:04.251Z,79.10
2019-05-18T22:48:40.911Z,79.00
2019-05-18T22:50:59.235Z,78.70
2019-05-18T22:53:25.770Z,78.90
2019-05-18T22:55:52.541Z,77.90
2019-05-18T22:58:19.825Z,78.20
2019-05-18T23:00:46.504Z,78.10
2019-05-18T23:03:13.016Z,78.10
2019-05-18T23:05:39.475Z,78.70
2019-05-18T23:08:06.023Z,78.90
2019-05-18T23:10:32.625Z,79.20
2019-05-18T23:12:59.133Z,78.60
2019-05-18T23:15:25.675Z,78.40
2019-05-18T23:17:52.250Z,78.30
2019-05-18T23:20:18.809Z,78.10
2019-05-18T23:22:45.328Z,77.80
2019-05-18T23:25:12.208Z,78.00
2019-05-18T23:27:38.595Z,77.80
2019-05-18T23:30:06.608Z,77.90
2019-05-18T23:32:33.234Z,77.40
2019-05-18T23:35:00.995Z,77.20
2019-05-18T23:37:27.707Z,77.30
2019-05-18T23:39:54.167Z,77.20
2019-05-18T23:42:20.753Z,78.20
2019-05-18T23:44:47.542Z,77.30
2019-05-18T23:47:14.101Z,77.30
2019-05-18T23:49:54.226Z,77.60
2019-05-18T23:52:20.728Z,77.90
2019-05-18T23:54:47.168Z,77.90
2019-05-18T23:57:13.614Z,77.90
2019-05-18T23:59:40.333Z,77.60
